createdAt,value
2023-03-29T00:00:36.288Z,74.04
2023-03-29T00:03:04.172Z,73.52
2023-03-29T00:05:33.922Z,74.15
2023-03-29T00:08:04.081Z,73.42
2023-03-29T00:10:33.626Z,74.22
2023-03-29T00:13:00.954Z,74.86
2023-03-29T00:15:27.558Z,75.35
2023-03-29T00:17:54.086Z,75.79
2023-03-29T00:20:20.688Z,75.81
2023-03-29T00:22:47.210Z,76.43
2023-03-29T00:25:14.057Z,76.07
2023-03-29T00:27:41.082Z,75.72
2023-03-29T00:30:10.028Z,75.42
2023-03-29T00:32:37.063Z,75.44
2023-03-29T00:35:05.984Z,75.60
2023-03-29T00:37:32.906Z,77.07
2023-03-29T00:39:59.685Z,75.96
2023-03-29T00:42:26.775Z,76.25
2023-03-29T00:45:05.278Z,77.79
2023-03-29T00:47:43.077Z,78.63
2023-03-29T00:50:29.627Z,80.45
2023-03-29T00:53:12.433Z,80.02
2023-03-29T00:55:44.266Z,81.10
2023-03-29T00:58:13.878Z,80.18
2023-03-29T01:01:04.323Z,80.47
2023-03-29T01:03:41.516Z,80.88
2023-03-29T01:06:10.585Z,80.93
2023-03-29T01:08:45.468Z,81.01
2023-03-29T01:11:22.194Z,81.00
2023-03-29T01:14:08.794Z,81.35
2023-03-29T01:16:38.463Z,81.22
2023-03-29T01:19:09.158Z,82.02
2023-03-29T01:21:43.625Z,81.87
2023-03-29T01:24:32.206Z,81.82
2023-03-29T01:27:22.839Z,81.47
2023-03-29T01:29:57.178Z,80.92
2023-03-29T01:32:34.806Z,81.93
2023-03-29T01:35:13.072Z,81.72
2023-03-29T01:37:46.067Z,81.30
2023-03-29T01:40:12.669Z,82.04
2023-03-29T01:43:03.396Z,81.87
2023-03-29T01:45:51.731Z,81.19
2023-03-29T01:48:30.069Z,80.72
2023-03-29T01:51:23.996Z,81.16
2023-03-29T01:54:14.513Z,81.60
2023-03-29T01:56:43.795Z,82.06
2023-03-29T01:59:17.626Z,83.64
2023-03-29T02:01:49.733Z,83.28
2023-03-29T02:04:29.027Z,84.86
2023-03-29T02:06:59.422Z,85.42
2023-03-29T02:09:28.702Z,86.25
2023-03-29T02:11:59.183Z,86.82
2023-03-29T02:14:26.174Z,87.29
2023-03-29T02:16:52.669Z,87.83
2023-03-29T02:19:20.516Z,87.83
2023-03-29T02:22:01.466Z,87.78
2023-03-29T02:24:32.272Z,87.72
2023-03-29T02:27:00.125Z,88.70
2023-03-29T02:29:27.297Z,89.40
2023-03-29T02:32:04.674Z,89.22
2023-03-29T02:34:38.868Z,89.48
2023-03-29T02:37:15.626Z,89.86
2023-03-29T02:39:42.783Z,90.25
2023-03-29T02:42:10.911Z,90.41
2023-03-29T02:44:41.942Z,91.22
2023-03-29T02:47:17.272Z,91.01
2023-03-29T02:49:44.192Z,91.84
2023-03-29T02:52:15.999Z,91.72
2023-03-29T02:54:45.913Z,91.71
2023-03-29T02:57:12.444Z,91.28
2023-03-29T02:59:40.816Z,90.39
2023-03-29T03:02:07.374Z,91.12
2023-03-29T03:04:35.479Z,90.89
2023-03-29T03:07:04.713Z,90.90
2023-03-29T03:09:31.776Z,92.81
2023-03-29T03:11:58.512Z,92.49
2023-03-29T03:14:25.258Z,92.28
2023-03-29T03:16:52.785Z,92.72
2023-03-29T03:19:19.883Z,92.50
2023-03-29T03:21:46.968Z,91.93
2023-03-29T03:24:14.384Z,92.31
2023-03-29T03:26:40.892Z,92.19
2023-03-29T03:29:07.624Z,91.96
2023-03-29T03:31:53.911Z,91.79
2023-03-29T03:34:39.294Z,91.44
2023-03-29T03:37:06.041Z,91.39
2023-03-29T03:39:34.297Z,92.31
2023-03-29T03:42:02.549Z,92.52
2023-03-29T03:44:29.138Z,92.58
2023-03-29T03:47:14.594Z,92.83
2023-03-29T03:49:42.159Z,93.18
2023-03-29T03:52:08.874Z,93.51
2023-03-29T03:54:35.358Z,93.01
2023-03-29T03:57:24.632Z,93.02
2023-03-29T03:59:52.880Z,92.51
2023-03-29T04:02:39.207Z,92.80
2023-03-29T04:05:06.339Z,92.53
2023-03-29T04:07:36.420Z,92.89
2023-03-29T04:10:31.919Z,94.18
2023-03-29T04:13:12.015Z,93.17
2023-03-29T04:16:00.881Z,93.39
2023-03-29T04:18:28.463Z,93.70
2023-03-29T04:20:57.485Z,93.78
2023-03-29T04:23:25.712Z,94.13
2023-03-29T04:25:54.233Z,94.64
2023-03-29T04:28:52.850Z,95.87
2023-03-29T04:31:32.274Z,94.93
2023-03-29T04:34:13.122Z,94.99
2023-03-29T04:36:39.717Z,96.27
2023-03-29T04:39:12.686Z,95.71
2023-03-29T04:41:40.505Z,95.74
2023-03-29T04:44:18.852Z,95.90
2023-03-29T04:46:45.555Z,96.38
2023-03-29T04:49:30.404Z,96.52
2023-03-29T04:51:58.156Z,95.47
2023-03-29T04:54:27.829Z,95.30
2023-03-29T04:57:01.457Z,95.12
2023-03-29T04:59:36.917Z,95.43
2023-03-29T05:02:12.818Z,95.16
2023-03-29T05:04:42.373Z,95.06
2023-03-29T05:07:15.531Z,94.89
2023-03-29T05:09:42.656Z,95.52
2023-03-29T05:12:09.993Z,95.62
2023-03-29T05:14:51.199Z,95.47
2023-03-29T05:17:18.084Z,95.08
2023-03-29T05:19:45.907Z,95.12
2023-03-29T05:22:14.164Z,96.03
2023-03-29T05:24:42.086Z,96.76
2023-03-29T05:27:17.194Z,95.54
2023-03-29T05:29:50.034Z,95.57
2023-03-29T05:32:38.057Z,95.05
2023-03-29T05:35:06.690Z,95.58
2023-03-29T05:37:34.365Z,94.93
2023-03-29T05:40:09.953Z,95.12
2023-03-29T05:42:53.207Z,96.44
2023-03-29T05:45:20.264Z,95.23
2023-03-29T05:47:46.803Z,95.26
2023-03-29T05:50:13.634Z,95.09
2023-03-29T05:52:41.135Z,95.30
2023-03-29T05:55:08.044Z,94.51
2023-03-29T05:57:38.088Z,95.30
2023-03-29T06:00:25.615Z,94.75
2023-03-29T06:03:10.093Z,95.38
2023-03-29T06:05:49.978Z,94.57
2023-03-29T06:08:17.104Z,94.92
2023-03-29T06:11:03.091Z,94.70
2023-03-29T06:13:53.852Z,95.30
2023-03-29T06:16:20.319Z,96.45
2023-03-29T06:18:47.895Z,95.91
2023-03-29T06:21:14.827Z,95.18
2023-03-29T06:23:41.847Z,94.72
2023-03-29T06:26:10.556Z,94.46
2023-03-29T06:28:37.687Z,94.94
2023-03-29T06:31:04.501Z,94.84
2023-03-29T06:33:37.756Z,95.88
2023-03-29T06:36:16.155Z,96.08
2023-03-29T06:38:45.584Z,95.63
2023-03-29T06:41:35.307Z,95.13
2023-03-29T06:44:07.439Z,95.53
2023-03-29T06:46:38.734Z,95.81
2023-03-29T06:49:07.344Z,95.61
2023-03-29T06:51:42.719Z,93.84
2023-03-29T06:54:09.276Z,93.94
2023-03-29T06:56:39.594Z,94.69
2023-03-29T06:59:11.795Z,93.63
2023-03-29T07:01:47.262Z,93.48
2023-03-29T07:04:22.276Z,93.13
2023-03-29T07:07:20.585Z,94.87
2023-03-29T07:09:55.235Z,93.63
2023-03-29T07:12:40.848Z,93.17
2023-03-29T07:15:09.534Z,91.89
2023-03-29T07:18:04.696Z,92.60
2023-03-29T07:20:33.731Z,92.16
2023-03-29T07:23:06.830Z,92.66
2023-03-29T07:25:34.117Z,92.17
2023-03-29T07:28:01.482Z,90.59
2023-03-29T07:30:32.019Z,90.72
2023-03-29T07:33:12.313Z,89.79
2023-03-29T07:35:47.904Z,90.34
2023-03-29T07:38:15.595Z,88.63
2023-03-29T07:40:47.344Z,87.95
2023-03-29T07:43:32.355Z,88.28
2023-03-29T07:46:04.817Z,86.86
2023-03-29T07:48:33.754Z,86.17
2023-03-29T07:51:05.186Z,85.34
2023-03-29T07:53:43.007Z,83.23
2023-03-29T07:56:27.640Z,82.56
2023-03-29T07:59:17.096Z,81.02
2023-03-29T08:01:47.653Z,82.32
2023-03-29T08:04:25.609Z,79.48
2023-03-29T08:07:10.992Z,80.24
2023-03-29T08:09:57.538Z,82.19
2023-03-29T08:12:38.142Z,80.73
2023-03-29T08:15:05.792Z,80.89
2023-03-29T08:17:36.184Z,79.20
2023-03-29T08:20:05.952Z,80.59
2023-03-29T08:22:33.831Z,80.39
2023-03-29T08:25:27.904Z,79.78
2023-03-29T08:27:54.637Z,81.66
2023-03-29T08:30:35.197Z,82.43
2023-03-29T08:33:02.846Z,81.58
2023-03-29T08:35:29.519Z,81.26
2023-03-29T08:38:08.714Z,80.16
2023-03-29T08:40:35.266Z,80.97
2023-03-29T08:43:39.189Z,79.03
2023-03-29T08:46:47.136Z,77.33
2023-03-29T08:49:22.277Z,76.79
2023-03-29T08:51:54.754Z,76.80
2023-03-29T08:54:25.419Z,76.27
2023-03-29T08:57:32.579Z,77.46
2023-03-29T09:00:20.452Z,75.99
2023-03-29T09:02:49.347Z,76.42
2023-03-29T09:05:26.778Z,73.22
2023-03-29T09:08:16.353Z,72.90
2023-03-29T09:11:08.392Z,72.39
2023-03-29T09:13:42.122Z,71.83
2023-03-29T09:16:23.828Z,69.97
2023-03-29T09:19:39.842Z,70.04
2023-03-29T09:22:45.897Z,69.54
2023-03-29T09:25:21.346Z,68.83
2023-03-29T09:27:56.977Z,67.55
2023-03-29T09:31:01.909Z,67.95
2023-03-29T09:33:43.758Z,67.72
2023-03-29T09:36:34.644Z,66.81
2023-03-29T09:39:02.376Z,67.64
2023-03-29T09:41:41.543Z,67.42
2023-03-29T09:44:23.913Z,67.91
2023-03-29T09:47:16.810Z,67.30
2023-03-29T09:49:48.632Z,66.11
2023-03-29T09:52:18.175Z,67.24
2023-03-29T09:54:54.055Z,67.02
2023-03-29T09:57:29.268Z,66.09
2023-03-29T09:59:57.598Z,65.29
2023-03-29T10:02:24.203Z,66.18
2023-03-29T10:05:03.811Z,65.85
2023-03-29T10:07:41.238Z,65.39
2023-03-29T10:10:10.533Z,65.00
2023-03-29T10:12:37.414Z,63.15
2023-03-29T10:15:05.615Z,62.18
2023-03-29T10:17:40.815Z,62.16
2023-03-29T10:20:13.815Z,61.31
2023-03-29T10:22:48.244Z,59.09
2023-03-29T10:25:18.352Z,60.66
2023-03-29T10:27:47.521Z,59.32
2023-03-29T10:30:23.856Z,58.30
2023-03-29T10:33:00.337Z,56.48
2023-03-29T10:35:38.117Z,55.14
2023-03-29T10:38:07.853Z,55.97
2023-03-29T10:40:35.660Z,54.76
2023-03-29T10:43:12.468Z,54.32
2023-03-29T10:45:40.183Z,54.27
2023-03-29T10:48:10.074Z,55.25
2023-03-29T10:50:38.102Z,54.24
2023-03-29T10:53:24.626Z,54.39
2023-03-29T10:56:14.559Z,53.22
2023-03-29T10:58:59.526Z,55.24
2023-03-29T11:01:34.105Z,55.01
2023-03-29T11:04:15.973Z,56.13
2023-03-29T11:06:52.556Z,52.23
2023-03-29T11:09:37.642Z,53.33
2023-03-29T11:12:16.347Z,54.43
2023-03-29T11:15:30.417Z,54.60
2023-03-29T11:18:41.560Z,55.19
2023-03-29T11:21:23.424Z,54.33
2023-03-29T11:24:25.619Z,54.89
2023-03-29T11:27:17.075Z,54.77
2023-03-29T11:30:03.651Z,55.41
2023-03-29T11:32:49.154Z,53.14
2023-03-29T11:35:24.399Z,53.68
2023-03-29T11:38:06.086Z,53.91
2023-03-29T11:40:53.502Z,54.02
2023-03-29T11:43:37.771Z,53.34
2023-03-29T11:46:04.503Z,53.05
2023-03-29T11:48:41.186Z,52.87
2023-03-29T11:51:28.541Z,53.22
2023-03-29T11:54:16.529Z,51.97
2023-03-29T11:56:59.006Z,50.97
2023-03-29T11:59:52.130Z,51.88
2023-03-29T12:02:32.540Z,51.51
2023-03-29T12:05:05.022Z,51.45
2023-03-29T12:07:41.664Z,50.43
2023-03-29T12:10:13.944Z,50.95
2023-03-29T12:12:55.237Z,50.71
2023-03-29T12:15:26.148Z,51.06
2023-03-29T12:18:37.892Z,51.30
2023-03-29T12:21:12.144Z,51.86
2023-03-29T12:23:41.660Z,52.45
2023-03-29T12:26:20.407Z,51.15
2023-03-29T12:29:08.299Z,51.24
2023-03-29T12:32:13.135Z,51.32
2023-03-29T12:35:22.195Z,51.51
2023-03-29T12:38:22.872Z,52.71
2023-03-29T12:41:19.829Z,51.94
2023-03-29T12:44:05.137Z,51.43
2023-03-29T12:46:54.720Z,51.75
2023-03-29T12:49:29.501Z,52.46
2023-03-29T12:51:59.012Z,51.05
2023-03-29T12:54:30.672Z,51.66
2023-03-29T12:57:03.349Z,50.90
2023-03-29T12:59:45.178Z,51.47
2023-03-29T13:02:14.518Z,51.21
2023-03-29T13:04:56.704Z,51.28
2023-03-29T13:07:23.303Z,52.03
2023-03-29T13:09:51.172Z,51.75
2023-03-29T13:12:35.995Z,51.64
2023-03-29T13:15:06.647Z,51.66
2023-03-29T13:18:16.098Z,52.34
2023-03-29T13:20:51.375Z,53.00
2023-03-29T13:23:51.468Z,50.33
2023-03-29T13:26:40.826Z,50.76
2023-03-29T13:29:29.748Z,50.98
2023-03-29T13:32:04.415Z,51.01
2023-03-29T13:34:53.757Z,50.15
2023-03-29T13:37:57.637Z,50.57
2023-03-29T13:40:53.777Z,50.53
2023-03-29T13:43:32.272Z,49.98
2023-03-29T13:45:58.721Z,49.40
2023-03-29T13:48:46.887Z,50.07
2023-03-29T13:51:13.268Z,50.04
2023-03-29T13:54:01.410Z,49.95
2023-03-29T13:56:58.961Z,50.89
2023-03-29T13:59:36.180Z,50.63
2023-03-29T14:02:04.569Z,50.10
2023-03-29T14:04:37.813Z,51.12
2023-03-29T14:07:06.826Z,51.74
2023-03-29T14:09:38.950Z,50.35
2023-03-29T14:12:07.951Z,51.37
2023-03-29T14:14:35.178Z,50.89
2023-03-29T14:17:02.683Z,51.01
2023-03-29T14:19:32.950Z,50.19
2023-03-29T14:22:01.920Z,49.55
2023-03-29T14:24:38.654Z,49.61
2023-03-29T14:27:07.540Z,48.98
2023-03-29T14:29:35.451Z,49.38
2023-03-29T14:32:10.655Z,48.80
2023-03-29T14:34:37.641Z,50.04
2023-03-29T14:37:04.612Z,50.21
2023-03-29T14:39:34.204Z,48.89
2023-03-29T14:42:01.661Z,48.80
2023-03-29T14:44:34.528Z,49.62
2023-03-29T14:47:02.898Z,49.98
2023-03-29T14:49:29.864Z,50.96
2023-03-29T14:51:57.171Z,50.33
2023-03-29T14:54:29.660Z,50.22
2023-03-29T14:56:56.445Z,51.46
2023-03-29T14:59:38.030Z,51.78
2023-03-29T15:02:21.861Z,51.23
2023-03-29T15:04:58.741Z,51.90
2023-03-29T15:07:29.484Z,51.16
2023-03-29T15:09:58.533Z,51.09
2023-03-29T15:12:28.758Z,51.74
2023-03-29T15:14:55.365Z,50.42
2023-03-29T15:17:42.640Z,51.94
2023-03-29T15:20:24.005Z,51.61
2023-03-29T15:23:01.434Z,51.66
2023-03-29T15:25:34.319Z,51.89
2023-03-29T15:28:01.860Z,52.33
2023-03-29T15:30:34.457Z,52.91
2023-03-29T15:33:21.293Z,53.29
2023-03-29T15:35:51.829Z,53.30
2023-03-29T15:38:23.310Z,54.08
2023-03-29T15:40:51.839Z,54.20
2023-03-29T15:43:21.229Z,54.63
2023-03-29T15:45:47.943Z,53.68
2023-03-29T15:48:20.421Z,54.26
2023-03-29T15:50:46.927Z,54.96
2023-03-29T15:53:15.753Z,52.93
2023-03-29T15:55:45.985Z,53.53
2023-03-29T15:58:15.130Z,53.11
2023-03-29T16:00:46.522Z,53.21
2023-03-29T16:03:15.959Z,53.36
2023-03-29T16:05:43.345Z,52.29
2023-03-29T16:08:11.459Z,52.58
2023-03-29T16:10:38.463Z,53.35
2023-03-29T16:13:05.044Z,53.15
2023-03-29T16:15:32.132Z,53.47
2023-03-29T16:17:58.659Z,55.29
2023-03-29T16:20:25.464Z,56.04
2023-03-29T16:22:54.120Z,57.84
2023-03-29T16:25:22.811Z,58.87
2023-03-29T16:27:50.780Z,58.14
2023-03-29T16:30:17.302Z,56.98
2023-03-29T16:32:43.855Z,57.40
2023-03-29T16:35:19.120Z,57.66
2023-03-29T16:37:45.608Z,57.84
2023-03-29T16:40:12.526Z,58.28
2023-03-29T16:42:39.763Z,58.41
2023-03-29T16:45:07.510Z,59.58
2023-03-29T16:47:34.043Z,59.26
2023-03-29T16:50:00.783Z,58.64
2023-03-29T16:52:27.615Z,59.45
2023-03-29T16:54:54.007Z,59.16
2023-03-29T16:57:20.445Z,58.53
2023-03-29T16:59:47.724Z,60.14
2023-03-29T17:02:14.178Z,61.10
2023-03-29T17:04:40.672Z,61.48
2023-03-29T17:07:07.142Z,61.78
2023-03-29T17:09:33.595Z,60.85
2023-03-29T17:12:00.155Z,61.15
2023-03-29T17:14:26.782Z,60.61
2023-03-29T17:16:53.328Z,59.67
2023-03-29T17:19:19.845Z,60.40
2023-03-29T17:21:46.289Z,60.58
2023-03-29T17:24:12.882Z,61.29
2023-03-29T17:26:39.827Z,61.98
2023-03-29T17:29:06.332Z,62.43
2023-03-29T17:31:34.804Z,60.52
2023-03-29T17:34:01.559Z,61.36
2023-03-29T17:36:28.875Z,62.16
2023-03-29T17:38:55.563Z,62.14
2023-03-29T17:41:22.887Z,62.32
2023-03-29T17:43:50.889Z,62.80
2023-03-29T17:46:18.049Z,63.06
2023-03-29T17:48:46.218Z,63.85
2023-03-29T17:51:12.649Z,63.71
2023-03-29T17:53:39.134Z,64.62
2023-03-29T17:56:06.995Z,64.87
2023-03-29T17:58:33.900Z,65.17
2023-03-29T18:01:07.187Z,64.88
2023-03-29T18:03:33.717Z,66.28
2023-03-29T18:06:00.338Z,65.80
2023-03-29T18:08:28.289Z,65.50
2023-03-29T18:10:54.740Z,66.48
2023-03-29T18:13:25.504Z,66.92
2023-03-29T18:15:56.633Z,67.58
2023-03-29T18:18:23.170Z,68.50
2023-03-29T18:20:49.681Z,69.52
2023-03-29T18:23:16.237Z,70.50
2023-03-29T18:25:42.601Z,71.26
2023-03-29T18:28:09.192Z,70.55
2023-03-29T18:30:35.762Z,71.65
2023-03-29T18:33:02.239Z,72.20
2023-03-29T18:35:28.788Z,72.89
2023-03-29T18:37:55.204Z,73.40
2023-03-29T18:40:24.637Z,74.73
2023-03-29T18:42:51.939Z,73.54
2023-03-29T18:45:18.999Z,73.70
2023-03-29T18:47:45.532Z,73.25
2023-03-29T18:50:13.212Z,73.26
2023-03-29T18:52:40.060Z,73.90
2023-03-29T18:55:07.248Z,73.77
2023-03-29T18:57:33.737Z,74.75
2023-03-29T19:00:00.394Z,75.56
2023-03-29T19:02:26.937Z,75.96
2023-03-29T19:04:53.355Z,76.26
2023-03-29T19:07:20.997Z,76.88
2023-03-29T19:09:47.412Z,76.29
2023-03-29T19:12:13.861Z,76.77
2023-03-29T19:14:40.412Z,76.38
2023-03-29T19:17:06.778Z,76.33
2023-03-29T19:19:33.273Z,74.89
2023-03-29T19:22:00.727Z,75.29
2023-03-29T19:24:27.752Z,75.88
2023-03-29T19:26:54.473Z,76.10
2023-03-29T19:29:20.982Z,76.09
2023-03-29T19:31:47.594Z,76.23
2023-03-29T19:34:14.212Z,76.17
2023-03-29T19:36:40.610Z,76.41
2023-03-29T19:39:07.195Z,77.67
2023-03-29T19:41:33.718Z,76.83
2023-03-29T19:44:00.376Z,77.66
2023-03-29T19:46:28.790Z,77.18
2023-03-29T19:48:56.218Z,76.91
2023-03-29T19:51:23.578Z,77.44
2023-03-29T19:53:50.244Z,78.26
2023-03-29T19:56:17.249Z,77.67
2023-03-29T19:58:43.735Z,76.81
2023-03-29T20:01:10.164Z,77.20
2023-03-29T20:03:36.774Z,77.88
2023-03-29T20:06:03.712Z,78.18
2023-03-29T20:08:30.519Z,79.60
2023-03-29T20:11:03.294Z,83.04
2023-03-29T20:13:38.358Z,85.70
2023-03-29T20:16:15.007Z,87.54
2023-03-29T20:18:44.550Z,86.92
2023-03-29T20:21:18.724Z,86.75
2023-03-29T20:23:45.890Z,86.58
2023-03-29T20:26:12.407Z,87.36
2023-03-29T20:28:38.835Z,88.58
2023-03-29T20:31:08.006Z,88.47
2023-03-29T20:33:34.473Z,90.40
2023-03-29T20:36:01.053Z,90.00
2023-03-29T20:38:27.833Z,91.84
2023-03-29T20:40:55.234Z,90.33
2023-03-29T20:43:21.824Z,89.34
2023-03-29T20:45:53.801Z,89.06
2023-03-29T20:48:23.239Z,90.80
2023-03-29T20:50:50.590Z,90.93
2023-03-29T20:53:18.393Z,90.91
2023-03-29T20:55:45.006Z,90.14
2023-03-29T20:58:11.531Z,89.85
2023-03-29T21:00:38.283Z,90.93
2023-03-29T21:03:05.035Z,90.81
2023-03-29T21:05:33.380Z,90.42
2023-03-29T21:07:59.987Z,89.66
2023-03-29T21:10:27.441Z,88.63
2023-03-29T21:12:54.411Z,88.25
2023-03-29T21:15:20.948Z,89.88
2023-03-29T21:17:47.791Z,92.04
2023-03-29T21:20:15.185Z,91.51
2023-03-29T21:22:45.266Z,91.22
2023-03-29T21:25:15.503Z,89.94
2023-03-29T21:27:42.063Z,90.23
2023-03-29T21:30:08.863Z,89.71
2023-03-29T21:32:35.707Z,89.62
2023-03-29T21:35:02.232Z,90.34
2023-03-29T21:37:28.658Z,90.88
2023-03-29T21:39:55.232Z,91.92
2023-03-29T21:42:21.598Z,91.49
2023-03-29T21:44:48.059Z,91.68
2023-03-29T21:47:14.430Z,92.52
2023-03-29T21:49:41.180Z,91.64
2023-03-29T21:52:07.678Z,90.75
2023-03-29T21:54:34.061Z,90.63
2023-03-29T21:57:00.678Z,90.76
2023-03-29T21:59:27.899Z,90.41
2023-03-29T22:17:20.661Z,93.63
2023-03-29T22:19:47.544Z,93.89
2023-03-29T22:22:14.665Z,93.81
2023-03-29T22:24:41.948Z,93.71
2023-03-29T22:27:08.578Z,93.67
2023-03-29T22:29:35.116Z,94.44
2023-03-29T22:32:01.829Z,95.56
2023-03-29T22:34:28.377Z,95.88
2023-03-29T22:36:54.808Z,95.56
2023-03-29T22:39:21.398Z,94.98
2023-03-29T22:41:47.952Z,94.35
2023-03-29T22:44:14.442Z,93.57
2023-03-29T22:46:41.308Z,93.09
2023-03-29T22:49:07.829Z,92.73
2023-03-29T22:51:34.253Z,93.04
2023-03-29T22:54:01.021Z,94.55
2023-03-29T22:56:27.555Z,94.25
2023-03-29T22:58:54.152Z,94.23
2023-03-29T23:01:20.682Z,94.34
2023-03-29T23:03:47.550Z,94.73
2023-03-29T23:06:14.100Z,94.03
2023-03-29T23:08:40.588Z,94.08
2023-03-29T23:11:07.564Z,94.34
2023-03-29T23:13:35.152Z,94.47
2023-03-29T23:16:03.900Z,94.40
2023-03-29T23:18:34.826Z,95.25
2023-03-29T23:21:02.440Z,95.20
2023-03-29T23:23:29.156Z,95.17
2023-03-29T23:25:55.976Z,94.99
2023-03-29T23:28:26.027Z,95.05
2023-03-29T23:30:57.899Z,94.67
2023-03-29T23:33:25.693Z,93.92
2023-03-29T23:35:53.366Z,93.64
2023-03-29T23:38:20.440Z,93.66
2023-03-29T23:41:00.356Z,93.64
2023-03-29T23:43:31.779Z,93.48
2023-03-29T23:46:17.582Z,92.93
2023-03-29T23:48:46.159Z,92.92
2023-03-29T23:51:12.966Z,93.00
2023-03-29T23:53:39.502Z,93.78
2023-03-29T23:56:06.259Z,93.70
2023-03-29T23:58:35.938Z,93.48
